aviador You're here:

YTEF Decoded Metar

TELFER AIRPORT in _UNIDENTIFIED
Report Time2017-09-25 17:00:00
UTC Time2017-09-25 17:06:24
Flight Rules vfr VFR
Wind300° at 10 kt
W.Decomp.*RWY 30: 10.0 kt HW 0.3 kt LCW
W.Rank300° ranks 11
Current wind is above 300° avg. (8.3)
Visibility9999 m
Phenomena:N/A
Clouds:N/A
Expected CloudBase > 3,600 ft AGL from Temp-Dew spread
CeilingNone
Temp21°C (ISA +8)
Dew Point12°C (57% RH)
AAT18.1°C
QNH1010 hPa
Density Alt2,188 ft
Elevation971 ft
Report Wrong Elevation
Raw Report
METAR YTEF 251700Z AUTO 30010KT 9999 // NCD 21/12 Q1010=

Extra information for YTEF:More info

Metar Taf Metar & Taf Last 4 Metars F.Rules Stats Wind Profile Meteogram Temp Stats Airport Information Weather charts Add Link Nearby VenuesMetar ALERT Operation Metar Decoded Social comments